Time;durP1;ratioP1;P1;durP2;ratioP2;P2;SDS_P1;SDS_P2;PMS_P1;PMS_P2;Temp;Humidity;BMP_temperature;BMP_pressure;BME280_temperature;BME280_humidity;BME280_pressure;Samples;Min_cycle;Max_cycle;Signal;HPM_P1;HPM_P2
2023/12/08 00:00:53;;;;;;;;;;;1.60;99.90;;;;;;5097326;27;19931;-75
2023/12/08 00:03:19;;;;;;;;;;;1.60;99.90;;;;;;5108201;27;19926;-75
2023/12/08 00:05:45;;;;;;;;;;;2.40;99.90;;;;;;5109859;27;19939;-75
2023/12/08 00:08:10;;;;;;;;;;;1.60;99.90;;;;;;5105770;27;19991;-75
2023/12/08 00:10:36;;;;;;;;;;;1.60;99.90;;;;;;5099779;27;19926;-76
2023/12/08 00:13:01;;;;;;;;;;;1.60;99.90;;;;;;5093837;27;21539;-74
2023/12/08 00:15:27;;;;;;;;;;;1.60;99.90;;;;;;5108757;27;19944;-75
2023/12/08 00:17:53;;;;;;;;;;;1.60;99.90;;;;;;5104622;27;19974;-74
2023/12/08 00:20:19;;;;;;;;;;;1.60;99.90;;;;;;5089731;27;19927;-74
2023/12/08 00:22:44;;;;;;;;;;;2.50;99.90;;;;;;5111712;27;19966;-74
2023/12/08 00:25:11;;;;;;;;;;;1.60;99.90;;;;;;5123673;27;19935;-75
2023/12/08 00:27:36;;;;;;;;;;;1.60;99.90;;;;;;5112523;27;19923;-75
2023/12/08 00:30:02;;;;;;;;;;;2.00;99.90;;;;;;5107375;27;19935;-75
2023/12/08 00:32:28;;;;;;;;;;;1.60;99.90;;;;;;5096211;27;20355;-75
2023/12/08 00:34:54;;;;;;;;;;;1.60;99.90;;;;;;5096930;27;19931;-75
2023/12/08 00:37:20;;;;;;;;;;;1.60;99.90;;;;;;5101745;27;19965;-75
2023/12/08 00:39:46;;;;;;;;;;;2.40;99.90;;;;;;5084013;27;19927;-74
2023/12/08 00:42:12;;;;;;;;;;;1.60;99.90;;;;;;5109372;27;19933;-75
2023/12/08 00:44:38;;;;;;;;;;;1.60;99.90;;;;;;5112697;27;19923;-75
2023/12/08 00:47:06;;;;;;;;;;;1.60;99.90;;;;;;5116342;27;19963;-75
2023/12/08 00:49:32;;;;;;;;;;;1.60;99.90;;;;;;5108018;27;19927;-75
2023/12/08 00:51:57;;;;;;;;;;;1.60;99.90;;;;;;5098992;27;20613;-75
2023/12/08 00:54:23;;;;;;;;;;;1.60;99.90;;;;;;5112285;27;20345;-74
2023/12/08 00:56:49;;;;;;;;;;;2.50;99.90;;;;;;5111736;27;20822;-75
2023/12/08 00:59:15;;;;;;;;;;;1.50;99.90;;;;;;5108560;27;19931;-75
2023/12/08 01:01:40;;;;;;;;;;;1.60;99.90;;;;;;5110627;27;19930;-75
2023/12/08 01:04:06;;;;;;;;;;;2.70;99.90;;;;;;5097926;27;20498;-76
2023/12/08 01:06:31;;;;;;;;;;;1.50;99.90;;;;;;5108235;27;19931;-75
2023/12/08 01:08:57;;;;;;;;;;;1.50;99.90;;;;;;5091459;27;19972;-76
2023/12/08 01:11:22;;;;;;;;;;;1.80;99.90;;;;;;5100949;27;19923;-76
2023/12/08 01:13:48;;;;;;;;;;;1.50;99.90;;;;;;5111439;27;20027;-74
2023/12/08 01:16:15;;;;;;;;;;;1.80;99.90;;;;;;5084258;27;20212;-75
2023/12/08 01:18:41;;;;;;;;;;;1.50;99.90;;;;;;5077841;27;19934;-76
2023/12/08 01:21:06;;;;;;;;;;;2.40;99.90;;;;;;5129088;27;20390;-75
2023/12/08 01:23:32;;;;;;;;;;;1.50;99.90;;;;;;5115091;27;19980;-75
2023/12/08 01:25:57;;;;;;;;;;;1.50;99.90;;;;;;5108427;27;20453;-75
2023/12/08 01:28:23;;;;;;;;;;;1.50;99.90;;;;;;5093841;27;20347;-76
2023/12/08 01:30:49;;;;;;;;;;;1.50;99.90;;;;;;5082699;27;20462;-75
2023/12/08 01:33:15;;;;;;;;;;;1.50;99.90;;;;;;5098514;27;19938;-75
2023/12/08 01:35:40;;;;;;;;;;;1.90;99.90;;;;;;5110557;27;19970;-76
2023/12/08 01:38:06;;;;;;;;;;;1.40;99.90;;;;;;5097681;27;20007;-75
2023/12/08 01:40:32;;;;;;;;;;;1.40;99.90;;;;;;5088881;27;21505;-75
2023/12/08 01:42:57;;;;;;;;;;;1.50;99.90;;;;;;5098560;27;20335;-75
2023/12/08 01:45:23;;;;;;;;;;;1.40;99.90;;;;;;5093166;27;19933;-75
2023/12/08 01:47:49;;;;;;;;;;;1.90;99.90;;;;;;5107236;27;20389;-75
2023/12/08 01:50:16;;;;;;;;;;;1.40;99.90;;;;;;5106133;27;20191;-74
2023/12/08 01:52:42;;;;;;;;;;;1.40;99.90;;;;;;5109828;27;19927;-74
2023/12/08 01:55:08;;;;;;;;;;;1.60;99.90;;;;;;5107602;27;19931;-75
2023/12/08 01:57:34;;;;;;;;;;;1.40;99.90;;;;;;5096368;27;20046;-75
2023/12/08 02:00:00;;;;;;;;;;;1.40;99.90;;;;;;5112491;27;19927;-75
2023/12/08 02:02:25;;;;;;;;;;;1.40;99.90;;;;;;5111578;27;20298;-75
2023/12/08 02:04:53;;;;;;;;;;;1.40;99.90;;;;;;5109965;27;19927;-75
2023/12/08 02:07:20;;;;;;;;;;;1.40;99.90;;;;;;5130265;27;19976;-75
2023/12/08 02:09:47;;;;;;;;;;;1.40;99.90;;;;;;5110417;27;20408;-75
2023/12/08 02:12:12;;;;;;;;;;;1.40;99.90;;;;;;5111691;27;20278;-75
2023/12/08 02:14:38;;;;;;;;;;;1.40;99.90;;;;;;5110390;27;19919;-76
2023/12/08 02:17:09;;;;;;;;;;;1.40;99.90;;;;;;5096138;27;20309;-76
2023/12/08 02:19:36;;;;;;;;;;;1.50;99.90;;;;;;5111208;27;19975;-76
2023/12/08 02:22:01;;;;;;;;;;;1.40;99.90;;;;;;5098332;27;19927;-76
2023/12/08 02:24:27;;;;;;;;;;;3.30;99.90;;;;;;5115178;27;19971;-76
2023/12/08 02:26:53;;;;;;;;;;;1.40;99.90;;;;;;5106829;27;19924;-75
2023/12/08 02:29:19;;;;;;;;;;;1.40;99.90;;;;;;5111708;27;19934;-75
2023/12/08 02:31:46;;;;;;;;;;;2.70;99.90;;;;;;5092135;27;19931;-75
2023/12/08 02:34:14;;;;;;;;;;;1.40;99.90;;;;;;5106196;27;19973;-75
2023/12/08 02:36:40;;;;;;;;;;;1.40;99.90;;;;;;5106766;27;19970;-75
2023/12/08 02:39:07;;;;;;;;;;;1.40;99.90;;;;;;5109690;27;19932;-76
2023/12/08 02:41:33;;;;;;;;;;;1.40;99.90;;;;;;5112469;27;19931;-75
2023/12/08 02:43:58;;;;;;;;;;;1.40;99.90;;;;;;5108726;27;19927;-75
2023/12/08 02:46:24;;;;;;;;;;;2.00;99.90;;;;;;5106351;27;19924;-76
2023/12/08 02:48:50;;;;;;;;;;;1.40;99.90;;;;;;5095384;27;20022;-75
2023/12/08 02:51:15;;;;;;;;;;;1.40;99.90;;;;;;5093631;27;19931;-75
2023/12/08 02:53:41;;;;;;;;;;;1.40;99.90;;;;;;5099321;27;19967;-75
2023/12/08 02:56:07;;;;;;;;;;;1.60;99.90;;;;;;5109928;27;20317;-75
2023/12/08 02:58:33;;;;;;;;;;;1.10;99.90;;;;;;5111785;27;19935;-75
2023/12/08 03:00:59;;;;;;;;;;;1.40;99.90;;;;;;5128141;27;19938;-75
2023/12/08 03:03:24;;;;;;;;;;;1.90;99.90;;;;;;5095675;27;20320;-75
2023/12/08 03:05:50;;;;;;;;;;;1.50;99.90;;;;;;5105704;27;19931;-75
2023/12/08 03:08:16;;;;;;;;;;;1.50;99.90;;;;;;5108867;27;19923;-75
2023/12/08 03:10:42;;;;;;;;;;;1.50;99.90;;;;;;5088972;27;19938;-75
2023/12/08 03:13:08;;;;;;;;;;;1.40;99.90;;;;;;5107070;27;19966;-75
2023/12/08 03:15:34;;;;;;;;;;;2.10;99.90;;;;;;5095404;27;20383;-75
2023/12/08 03:17:59;;;;;;;;;;;1.50;99.90;;;;;;5105026;27;19927;-75
2023/12/08 03:20:25;;;;;;;;;;;1.50;99.90;;;;;;5128687;27;20524;-75
2023/12/08 03:22:52;;;;;;;;;;;1.50;99.90;;;;;;5106344;27;22098;-74
2023/12/08 03:25:18;;;;;;;;;;;1.50;99.90;;;;;;5097418;27;21247;-75
2023/12/08 03:27:44;;;;;;;;;;;2.90;99.90;;;;;;5096971;27;20688;-75
2023/12/08 03:30:11;;;;;;;;;;;2.00;99.90;;;;;;5096849;27;20294;-75
2023/12/08 03:32:37;;;;;;;;;;;1.50;99.90;;;;;;5095518;27;19927;-75
2023/12/08 03:35:02;;;;;;;;;;;1.50;99.90;;;;;;5108556;27;20139;-74
2023/12/08 03:37:28;;;;;;;;;;;1.50;99.90;;;;;;5106014;27;20027;-75
2023/12/08 03:39:54;;;;;;;;;;;1.50;99.90;;;;;;5098926;27;20010;-75
2023/12/08 03:42:19;;;;;;;;;;;1.60;99.90;;;;;;5109866;27;19931;-76
2023/12/08 03:44:45;;;;;;;;;;;3.20;99.90;;;;;;5107427;27;19950;-75
2023/12/08 03:47:11;;;;;;;;;;;1.90;99.90;;;;;;5106792;27;19931;-74
2023/12/08 03:49:36;;;;;;;;;;;1.40;99.90;;;;;;5096743;27;19934;-75
2023/12/08 03:52:02;;;;;;;;;;;1.40;99.90;;;;;;5093054;27;19923;-75
2023/12/08 03:54:28;;;;;;;;;;;1.40;99.90;;;;;;5110462;27;19927;-75
2023/12/08 03:56:53;;;;;;;;;;;2.00;99.90;;;;;;5090572;27;20346;-74
2023/12/08 03:59:19;;;;;;;;;;;1.40;99.90;;;;;;5094845;27;19950;-74
2023/12/08 04:01:44;;;;;;;;;;;1.40;99.90;;;;;;5108084;27;19923;-73
2023/12/08 04:04:12;;;;;;;;;;;1.40;99.90;;;;;;5094236;27;19931;-74
2023/12/08 04:06:38;;;;;;;;;;;1.40;99.90;;;;;;5113648;27;19927;-75
2023/12/08 04:09:05;;;;;;;;;;;1.00;99.90;;;;;;5118176;27;20034;-74
2023/12/08 04:11:30;;;;;;;;;;;1.40;99.90;;;;;;5115039;27;19944;-75
2023/12/08 04:13:56;;;;;;;;;;;1.40;99.90;;;;;;5098251;27;19935;-75
2023/12/08 04:16:22;;;;;;;;;;;1.40;99.90;;;;;;5131044;27;19996;-75
2023/12/08 04:18:47;;;;;;;;;;;1.90;99.90;;;;;;5087698;27;20366;-73
2023/12/08 04:21:19;;;;;;;;;;;1.40;99.90;;;;;;5100227;27;19931;-74
2023/12/08 04:23:45;;;;;;;;;;;1.30;99.90;;;;;;5110366;27;19927;-76
2023/12/08 04:26:11;;;;;;;;;;;3.10;99.90;;;;;;5128944;27;20649;-75
2023/12/08 04:28:39;;;;;;;;;;;1.30;99.90;;;;;;5100368;27;19931;-75
2023/12/08 04:31:04;;;;;;;;;;;1.30;99.90;;;;;;5110741;27;20049;-75
2023/12/08 04:33:30;;;;;;;;;;;1.30;99.90;;;;;;5107051;27;19972;-75
2023/12/08 04:35:56;;;;;;;;;;;1.90;99.90;;;;;;5111042;27;19927;-74
2023/12/08 04:38:21;;;;;;;;;;;2.20;99.90;;;;;;5107539;27;19924;-75
2023/12/08 04:40:47;;;;;;;;;;;1.30;99.90;;;;;;5098895;27;20471;-75
2023/12/08 04:43:12;;;;;;;;;;;1.30;99.90;;;;;;5110821;27;19927;-75
2023/12/08 04:45:38;;;;;;;;;;;1.30;99.90;;;;;;5102099;27;20620;-75
2023/12/08 04:48:04;;;;;;;;;;;1.30;99.90;;;;;;5115281;27;19927;-75
2023/12/08 04:50:29;;;;;;;;;;;1.20;99.90;;;;;;5108309;27;20268;-75
2023/12/08 04:52:55;;;;;;;;;;;1.20;99.90;;;;;;5121522;27;19928;-75
2023/12/08 04:55:21;;;;;;;;;;;1.20;99.90;;;;;;5110858;27;20858;-75
2023/12/08 04:57:46;;;;;;;;;;;1.20;99.90;;;;;;5093523;27;19928;-75
2023/12/08 05:00:12;;;;;;;;;;;1.20;99.90;;;;;;5113046;27;19928;-75
2023/12/08 05:02:37;;;;;;;;;;;1.20;99.90;;;;;;5098334;27;19935;-75
2023/12/08 05:05:03;;;;;;;;;;;1.10;99.90;;;;;;5095645;27;20408;-75
2023/12/08 05:07:29;;;;;;;;;;;1.20;99.90;;;;;;5100186;27;19927;-75
2023/12/08 05:09:55;;;;;;;;;;;1.10;99.90;;;;;;5100452;27;20002;-75
2023/12/08 05:12:24;;;;;;;;;;;1.10;99.90;;;;;;5097814;27;19931;-75
2023/12/08 05:14:49;;;;;;;;;;;1.10;99.90;;;;;;5122306;27;20436;-75
2023/12/08 05:17:15;;;;;;;;;;;1.10;99.90;;;;;;5107580;27;20329;-75
2023/12/08 05:19:41;;;;;;;;;;;1.10;99.90;;;;;;5099850;27;19979;-75
2023/12/08 05:22:06;;;;;;;;;;;1.10;99.90;;;;;;5099308;27;19930;-75
2023/12/08 05:24:33;;;;;;;;;;;1.10;99.90;;;;;;5111925;27;19923;-75
2023/12/08 05:26:58;;;;;;;;;;;1.00;99.90;;;;;;5127352;27;20629;-75
2023/12/08 05:29:24;;;;;;;;;;;1.30;99.90;;;;;;5107950;27;20010;-75
2023/12/08 05:31:50;;;;;;;;;;;2.10;99.90;;;;;;5110290;27;19931;-75
2023/12/08 05:34:21;;;;;;;;;;;1.00;99.90;;;;;;5100362;27;20009;-74
2023/12/08 05:36:47;;;;;;;;;;;1.60;99.90;;;;;;5090646;27;20064;-75
2023/12/08 05:39:13;;;;;;;;;;;0.90;99.90;;;;;;5114086;27;19934;-75
2023/12/08 05:41:39;;;;;;;;;;;0.90;99.90;;;;;;5107463;27;20434;-75
2023/12/08 05:44:05;;;;;;;;;;;0.90;99.90;;;;;;5105785;27;19981;-76
2023/12/08 05:46:34;;;;;;;;;;;0.90;99.90;;;;;;5128765;27;20560;-75
2023/12/08 05:48:59;;;;;;;;;;;1.60;99.90;;;;;;5083978;27;19927;-75
2023/12/08 05:51:25;;;;;;;;;;;0.90;99.90;;;;;;5127711;27;19923;-75
2023/12/08 05:53:57;;;;;;;;;;;0.90;99.90;;;;;;5094844;27;19927;-75
2023/12/08 05:56:22;;;;;;;;;;;0.90;99.90;;;;;;5100964;27;19928;-74
2023/12/08 05:58:48;;;;;;;;;;;0.90;99.90;;;;;;5086595;27;20027;-75
2023/12/08 06:01:14;;;;;;;;;;;1.40;99.90;;;;;;5111834;27;19930;-75
2023/12/08 06:03:39;;;;;;;;;;;0.90;99.90;;;;;;5106866;27;19955;-75
2023/12/08 06:06:05;;;;;;;;;;;0.90;99.90;;;;;;5113367;27;20431;-75
2023/12/08 06:08:31;;;;;;;;;;;0.90;99.90;;;;;;5111464;27;19923;-75
2023/12/08 06:10:56;;;;;;;;;;;0.90;99.90;;;;;;5112444;27;19949;-75
2023/12/08 06:13:22;;;;;;;;;;;0.90;99.90;;;;;;5099002;27;20335;-75
2023/12/08 06:15:47;;;;;;;;;;;0.90;99.90;;;;;;5097676;27;19975;-75
2023/12/08 06:18:13;;;;;;;;;;;0.90;99.90;;;;;;5105004;27;19931;-75
2023/12/08 06:20:39;;;;;;;;;;;0.90;99.90;;;;;;5112288;27;20650;-75
2023/12/08 06:23:04;;;;;;;;;;;0.90;99.90;;;;;;5107006;27;19920;-75
2023/12/08 06:25:30;;;;;;;;;;;1.30;99.90;;;;;;5109313;27;19966;-74
2023/12/08 06:27:55;;;;;;;;;;;1.20;99.90;;;;;;5111027;27;20129;-74
2023/12/08 06:30:22;;;;;;;;;;;1.20;99.90;;;;;;5075566;27;19928;-74
2023/12/08 06:32:47;;;;;;;;;;;1.10;99.90;;;;;;5091403;27;19966;-75
2023/12/08 06:35:13;;;;;;;;;;;0.90;99.90;;;;;;5105290;27;20424;-76
2023/12/08 06:37:39;;;;;;;;;;;0.90;99.90;;;;;;5104778;27;19930;-75
2023/12/08 06:40:05;;;;;;;;;;;0.90;99.90;;;;;;5105414;27;19927;-75
2023/12/08 06:42:30;;;;;;;;;;;1.00;99.90;;;;;;5094593;27;19923;-75
2023/12/08 06:44:56;;;;;;;;;;;1.70;99.90;;;;;;5080408;27;19926;-75
2023/12/08 06:47:22;;;;;;;;;;;0.90;99.90;;;;;;5091062;27;20398;-75
2023/12/08 06:49:47;;;;;;;;;;;1.10;99.90;;;;;;5111348;27;19927;-75
2023/12/08 06:52:13;;;;;;;;;;;1.00;99.90;;;;;;5110823;27;20022;-75
2023/12/08 06:54:38;;;;;;;;;;;0.90;99.90;;;;;;5109717;27;19931;-74
2023/12/08 06:57:04;;;;;;;;;;;0.90;99.90;;;;;;5111139;27;19931;-75
2023/12/08 06:59:30;;;;;;;;;;;1.00;99.90;;;;;;5097158;27;19927;-75
2023/12/08 07:01:55;;;;;;;;;;;1.00;99.90;;;;;;5124386;27;20487;-75
2023/12/08 07:04:21;;;;;;;;;;;1.00;99.90;;;;;;5128857;27;19966;-75
2023/12/08 07:06:46;;;;;;;;;;;1.80;99.90;;;;;;5101293;27;19984;-75
2023/12/08 07:09:12;;;;;;;;;;;1.00;99.90;;;;;;5109545;27;20398;-75
2023/12/08 07:11:38;;;;;;;;;;;1.50;99.90;;;;;;5127132;27;19927;-75
2023/12/08 07:14:03;;;;;;;;;;;1.00;99.90;;;;;;5108380;27;19968;-75
2023/12/08 07:16:29;;;;;;;;;;;1.00;99.90;;;;;;5095871;27;19927;-75
2023/12/08 07:18:55;;;;;;;;;;;1.00;99.90;;;;;;5093005;27;19923;-75
2023/12/08 07:21:20;;;;;;;;;;;1.80;99.90;;;;;;5102994;27;20841;-75
2023/12/08 07:23:46;;;;;;;;;;;1.00;99.90;;;;;;5089861;27;19938;-75
2023/12/08 07:26:11;;;;;;;;;;;1.00;99.90;;;;;;5108941;27;19934;-75
2023/12/08 07:28:37;;;;;;;;;;;1.00;99.90;;;;;;5093112;27;20282;-75
2023/12/08 07:31:03;;;;;;;;;;;2.40;99.90;;;;;;5110102;27;19931;-75
2023/12/08 07:33:31;;;;;;;;;;;1.00;99.90;;;;;;5123273;27;19924;-75
2023/12/08 07:35:57;;;;;;;;;;;2.00;99.90;;;;;;5109080;27;19927;-75
2023/12/08 07:38:23;;;;;;;;;;;1.00;99.90;;;;;;5109282;27;20197;-75
2023/12/08 07:40:48;;;;;;;;;;;1.00;99.90;;;;;;5093589;27;20296;-74
2023/12/08 07:43:14;;;;;;;;;;;1.00;99.90;;;;;;5097533;27;19928;-75
2023/12/08 07:45:40;;;;;;;;;;;1.30;99.90;;;;;;5094291;27;19984;-75
2023/12/08 07:48:05;;;;;;;;;;;1.00;99.90;;;;;;5108130;27;20457;-75
2023/12/08 07:50:31;;;;;;;;;;;1.00;99.90;;;;;;5087517;27;19931;-75
2023/12/08 07:52:56;;;;;;;;;;;1.00;99.90;;;;;;5108234;27;20377;-75
2023/12/08 07:55:22;;;;;;;;;;;1.40;99.90;;;;;;5090366;27;20270;-75
2023/12/08 07:57:47;;;;;;;;;;;1.30;99.90;;;;;;5078763;27;19927;-74
2023/12/08 08:00:13;;;;;;;;;;;1.00;99.90;;;;;;5092850;27;20035;-75
2023/12/08 08:02:40;;;;;;;;;;;1.00;99.90;;;;;;5106233;27;19962;-75
2023/12/08 08:05:06;;;;;;;;;;;1.00;99.90;;;;;;5109856;27;20392;-75
2023/12/08 08:07:32;;;;;;;;;;;1.10;99.90;;;;;;5110644;27;19931;-75
2023/12/08 08:09:57;;;;;;;;;;;1.00;99.90;;;;;;5088543;27;19965;-75
2023/12/08 08:12:23;;;;;;;;;;;1.00;99.90;;;;;;5100412;27;19989;-75
2023/12/08 08:14:48;;;;;;;;;;;1.00;99.90;;;;;;5095725;27;19967;-74
2023/12/08 08:17:14;;;;;;;;;;;1.20;99.90;;;;;;5107336;27;19995;-74
2023/12/08 08:19:41;;;;;;;;;;;2.60;99.90;;;;;;5092197;27;19927;-74
2023/12/08 08:22:07;;;;;;;;;;;1.00;99.90;;;;;;5094440;27;19931;-75
2023/12/08 08:24:32;;;;;;;;;;;0.90;99.90;;;;;;5125267;27;19946;-74
2023/12/08 08:26:58;;;;;;;;;;;1.20;99.90;;;;;;5105384;27;20829;-74
2023/12/08 08:29:24;;;;;;;;;;;0.90;99.90;;;;;;5088104;27;19932;-74
2023/12/08 08:31:49;;;;;;;;;;;1.20;99.90;;;;;;5079433;27;19932;-74
2023/12/08 08:34:16;;;;;;;;;;;1.40;99.90;;;;;;5093284;27;20452;-75
2023/12/08 08:36:42;;;;;;;;;;;1.00;99.90;;;;;;5109830;27;19932;-74
2023/12/08 08:39:08;;;;;;;;;;;1.40;99.90;;;;;;5095309;27;19929;-74
2023/12/08 08:41:33;;;;;;;;;;;1.70;99.90;;;;;;5107133;27;19935;-74
2023/12/08 08:43:59;;;;;;;;;;;1.00;99.90;;;;;;5110458;27;19927;-75
2023/12/08 08:46:25;;;;;;;;;;;1.00;99.90;;;;;;5096303;27;20463;-74
2023/12/08 08:48:51;;;;;;;;;;;1.50;99.90;;;;;;5100742;27;19942;-75
2023/12/08 08:51:16;;;;;;;;;;;1.40;99.90;;;;;;5109213;27;19924;-75
2023/12/08 08:53:42;;;;;;;;;;;1.10;99.90;;;;;;5113122;27;19927;-74
2023/12/08 08:56:08;;;;;;;;;;;1.60;99.90;;;;;;5108771;27;19963;-74
2023/12/08 08:58:34;;;;;;;;;;;1.10;99.90;;;;;;5088444;27;19945;-75
2023/12/08 09:00:59;;;;;;;;;;;1.20;99.90;;;;;;5107818;27;19927;-74
2023/12/08 09:03:25;;;;;;;;;;;1.20;99.90;;;;;;5109634;27;19931;-75
2023/12/08 09:05:51;;;;;;;;;;;1.20;99.90;;;;;;5076330;27;19992;-75
2023/12/08 09:08:17;;;;;;;;;;;1.20;99.90;;;;;;5097800;27;19923;-74
2023/12/08 09:10:45;;;;;;;;;;;1.20;99.90;;;;;;5110154;27;19954;-74
2023/12/08 09:13:11;;;;;;;;;;;1.70;99.90;;;;;;5077427;27;19934;-75
2023/12/08 09:15:36;;;;;;;;;;;1.50;99.90;;;;;;5100286;27;20341;-74
2023/12/08 09:18:03;;;;;;;;;;;1.30;99.90;;;;;;5102281;27;19927;-75
2023/12/08 09:20:28;;;;;;;;;;;1.30;99.90;;;;;;5110531;27;20159;-74
2023/12/08 09:22:54;;;;;;;;;;;1.60;99.90;;;;;;5104328;27;19931;-74
2023/12/08 09:25:20;;;;;;;;;;;1.30;99.90;;;;;;5117808;27;19971;-74
2023/12/08 09:27:45;;;;;;;;;;;1.40;99.90;;;;;;5116233;27;19927;-74
2023/12/08 09:30:11;;;;;;;;;;;1.80;99.90;;;;;;5120550;27;20490;-74
2023/12/08 09:32:37;;;;;;;;;;;1.40;99.90;;;;;;5095673;27;19927;-74
2023/12/08 09:35:03;;;;;;;;;;;1.50;99.90;;;;;;5110502;27;19926;-75
2023/12/08 09:37:28;;;;;;;;;;;1.50;99.90;;;;;;5097263;27;19977;-75
2023/12/08 09:39:54;;;;;;;;;;;1.70;99.90;;;;;;5097664;27;19987;-75
2023/12/08 09:42:36;;;;;;;;;;;1.50;99.90;;;;;;5082913;27;20377;-74
2023/12/08 09:45:05;;;;;;;;;;;1.40;99.90;;;;;;5110880;27;20393;-74
2023/12/08 09:47:33;;;;;;;;;;;1.50;99.90;;;;;;5090199;27;19923;-75
2023/12/08 09:50:00;;;;;;;;;;;2.40;99.90;;;;;;5105650;27;19967;-75
2023/12/08 09:52:25;;;;;;;;;;;1.50;99.90;;;;;;5096857;27;19996;-74
2023/12/08 09:54:51;;;;;;;;;;;1.60;99.90;;;;;;5117216;27;19931;-75
2023/12/08 09:57:19;;;;;;;;;;;1.60;99.90;;;;;;5108539;27;19935;-75
2023/12/08 09:59:46;;;;;;;;;;;1.60;99.90;;;;;;5116638;27;19927;-75
2023/12/08 10:02:12;;;;;;;;;;;1.60;99.90;;;;;;5109701;27;19924;-74
2023/12/08 10:04:38;;;;;;;;;;;1.60;99.90;;;;;;5110562;27;19935;-76
2023/12/08 10:07:06;;;;;;;;;;;1.70;99.90;;;;;;5096721;27;20300;-74
2023/12/08 10:09:31;;;;;;;;;;;1.70;99.90;;;;;;5111446;27;20063;-75
2023/12/08 10:11:57;;;;;;;;;;;1.60;99.90;;;;;;5108352;27;19931;-75
2023/12/08 10:14:26;;;;;;;;;;;1.70;99.90;;;;;;5112842;27;19927;-75
2023/12/08 10:16:52;;;;;;;;;;;1.70;99.90;;;;;;5101514;27;19931;-75
2023/12/08 10:19:21;;;;;;;;;;;1.70;99.90;;;;;;5103813;27;19931;-74
2023/12/08 10:22:00;;;;;;;;;;;1.70;99.90;;;;;;5111500;27;19924;-74
2023/12/08 10:24:26;;;;;;;;;;;1.70;99.90;;;;;;5103977;27;20026;-74
2023/12/08 10:26:53;;;;;;;;;;;2.30;99.90;;;;;;5101296;27;20004;-74
2023/12/08 10:29:18;;;;;;;;;;;1.70;99.90;;;;;;5128923;27;20405;-74
2023/12/08 10:31:45;;;;;;;;;;;1.70;99.90;;;;;;5110330;27;19927;-74
2023/12/08 10:34:11;;;;;;;;;;;1.80;99.90;;;;;;5107130;27;20273;-75
2023/12/08 10:36:37;;;;;;;;;;;1.80;99.90;;;;;;5079849;27;19923;-74
2023/12/08 10:39:03;;;;;;;;;;;2.40;99.90;;;;;;5108381;27;19927;-74
2023/12/08 10:41:28;;;;;;;;;;;1.90;99.90;;;;;;5111570;27;19927;-74
2023/12/08 10:43:54;;;;;;;;;;;1.90;99.90;;;;;;5114467;27;20014;-74
2023/12/08 10:46:20;;;;;;;;;;;2.20;99.90;;;;;;5105526;27;19927;-74
2023/12/08 10:48:46;;;;;;;;;;;1.90;99.90;;;;;;5110835;27;19984;-76
2023/12/08 10:51:13;;;;;;;;;;;2.40;99.90;;;;;;5093787;27;19995;-75
2023/12/08 10:53:45;;;;;;;;;;;2.00;99.90;;;;;;5108660;27;19923;-75
2023/12/08 10:56:12;;;;;;;;;;;2.00;99.90;;;;;;5110394;27;19950;-75
2023/12/08 10:58:41;;;;;;;;;;;2.00;99.90;;;;;;5107901;27;19979;-74
2023/12/08 11:01:12;;;;;;;;;;;2.10;99.90;;;;;;5112784;27;19931;-74
2023/12/08 11:03:39;;;;;;;;;;;2.10;99.90;;;;;;5105808;27;19919;-75
2023/12/08 11:06:12;;;;;;;;;;;2.10;99.90;;;;;;5107055;27;19927;-74
2023/12/08 11:08:44;;;;;;;;;;;2.10;99.90;;;;;;5106713;27;19931;-75
2023/12/08 11:11:11;;;;;;;;;;;2.10;99.90;;;;;;5099002;27;19934;-75
2023/12/08 11:13:39;;;;;;;;;;;2.10;99.90;;;;;;5100250;27;20621;-75
2023/12/08 11:16:05;;;;;;;;;;;2.10;99.90;;;;;;5112424;27;19935;-75
2023/12/08 11:18:34;;;;;;;;;;;2.10;99.90;;;;;;5092020;27;19931;-73
2023/12/08 11:21:05;;;;;;;;;;;2.10;99.90;;;;;;5074004;27;19928;-75
2023/12/08 11:23:31;;;;;;;;;;;2.10;99.90;;;;;;5113955;27;19931;-74
2023/12/08 11:26:16;;;;;;;;;;;2.20;99.90;;;;;;5104310;27;19931;-75
2023/12/08 11:29:04;;;;;;;;;;;2.20;99.90;;;;;;5105331;27;20077;-75
2023/12/08 11:31:38;;;;;;;;;;;2.20;99.90;;;;;;5097491;27;19978;-75
2023/12/08 11:34:13;;;;;;;;;;;2.20;99.90;;;;;;5106165;27;19931;-74
2023/12/08 11:36:43;;;;;;;;;;;2.20;99.90;;;;;;5105051;27;19924;-75
2023/12/08 11:39:28;;;;;;;;;;;2.10;99.90;;;;;;5102063;27;20010;-75
2023/12/08 11:41:53;;;;;;;;;;;2.20;99.90;;;;;;5118182;27;19954;-74
2023/12/08 11:44:19;;;;;;;;;;;2.20;99.90;;;;;;5098866;27;19928;-75
2023/12/08 11:46:45;;;;;;;;;;;2.20;99.90;;;;;;5087034;27;20430;-75
2023/12/08 11:49:11;;;;;;;;;;;2.80;99.90;;;;;;5123741;27;19983;-75
2023/12/08 11:51:36;;;;;;;;;;;2.20;99.90;;;;;;5109278;27;20377;-75
2023/12/08 11:54:05;;;;;;;;;;;2.20;99.90;;;;;;5109375;27;19966;-75
2023/12/08 11:56:45;;;;;;;;;;;2.30;99.90;;;;;;5099065;27;19927;-74
2023/12/08 11:59:28;;;;;;;;;;;2.20;99.90;;;;;;5125003;27;19926;-75
2023/12/08 12:01:56;;;;;;;;;;;2.30;99.90;;;;;;5096033;27;19931;-75
2023/12/08 12:04:22;;;;;;;;;;;2.40;99.90;;;;;;5100662;27;20403;-75
2023/12/08 12:06:49;;;;;;;;;;;2.30;99.90;;;;;;5091397;27;19927;-75
2023/12/08 12:09:16;;;;;;;;;;;2.30;99.90;;;;;;5108026;27;20359;-75
2023/12/08 12:11:42;;;;;;;;;;;2.40;99.90;;;;;;5109842;27;19928;-74
2023/12/08 12:14:09;;;;;;;;;;;2.40;99.90;;;;;;5103045;27;19927;-75
2023/12/08 12:16:34;;;;;;;;;;;2.40;99.90;;;;;;5107689;27;19966;-75
2023/12/08 12:19:00;;;;;;;;;;;2.50;99.90;;;;;;5081709;27;20187;-75
2023/12/08 12:21:26;;;;;;;;;;;2.50;99.90;;;;;;5095458;27;19941;-75
2023/12/08 12:23:52;;;;;;;;;;;2.70;99.90;;;;;;5106438;27;19943;-75
2023/12/08 12:26:20;;;;;;;;;;;2.60;99.90;;;;;;5100952;27;19927;-75
2023/12/08 12:28:46;;;;;;;;;;;2.90;99.90;;;;;;5110342;27;19931;-75
2023/12/08 12:31:13;;;;;;;;;;;2.70;99.90;;;;;;5125534;27;19938;-75
2023/12/08 12:33:39;;;;;;;;;;;4.00;99.90;;;;;;5114436;27;19929;-76
2023/12/08 12:36:05;;;;;;;;;;;2.70;99.90;;;;;;5108246;27;20015;-75
2023/12/08 12:38:34;;;;;;;;;;;2.60;99.90;;;;;;5111014;27;19927;-75
2023/12/08 12:41:23;;;;;;;;;;;2.70;99.90;;;;;;5110705;27;19933;-75
2023/12/08 12:43:54;;;;;;;;;;;2.70;99.90;;;;;;5120732;27;20361;-75
2023/12/08 12:46:19;;;;;;;;;;;2.70;99.90;;;;;;5116427;27;20000;-75
2023/12/08 12:48:46;;;;;;;;;;;2.70;99.90;;;;;;5112777;27;19927;-75
2023/12/08 12:51:14;;;;;;;;;;;2.70;99.90;;;;;;5115106;27;19953;-75
2023/12/08 12:53:46;;;;;;;;;;;2.70;99.90;;;;;;5091412;27;19976;-75
2023/12/08 12:56:11;;;;;;;;;;;2.80;99.90;;;;;;5112166;27;19927;-75
2023/12/08 12:58:37;;;;;;;;;;;2.90;99.90;;;;;;5114466;27;19934;-75
2023/12/08 13:01:10;;;;;;;;;;;2.80;99.90;;;;;;5107276;27;19958;-75
2023/12/08 13:03:43;;;;;;;;;;;2.80;99.90;;;;;;5091621;27;19923;-75
2023/12/08 13:06:08;;;;;;;;;;;2.80;99.90;;;;;;5111511;27;19926;-75
2023/12/08 13:08:42;;;;;;;;;;;2.80;99.90;;;;;;5107436;27;20327;-75
2023/12/08 13:11:07;;;;;;;;;;;2.80;99.90;;;;;;5096772;27;19938;-75
2023/12/08 13:13:36;;;;;;;;;;;2.80;99.90;;;;;;5115925;27;19958;-75
2023/12/08 13:16:02;;;;;;;;;;;2.90;99.90;;;;;;5111128;27;19931;-75
2023/12/08 13:18:28;;;;;;;;;;;2.90;99.90;;;;;;5119800;27;19927;-74
2023/12/08 13:20:54;;;;;;;;;;;3.30;99.90;;;;;;5110284;27;19934;-75
2023/12/08 13:23:20;;;;;;;;;;;3.00;99.90;;;;;;5112357;27;19984;-75
2023/12/08 13:25:45;;;;;;;;;;;2.90;99.90;;;;;;5112870;27;19974;-75
2023/12/08 13:28:11;;;;;;;;;;;3.00;99.90;;;;;;5112349;27;19927;-75
2023/12/08 13:30:37;;;;;;;;;;;3.20;99.90;;;;;;5104151;27;19986;-75
2023/12/08 13:33:03;;;;;;;;;;;3.00;99.90;;;;;;5098727;27;20293;-75
2023/12/08 13:35:37;;;;;;;;;;;3.00;99.90;;;;;;5113165;27;19966;-75
2023/12/08 13:38:03;;;;;;;;;;;3.00;99.90;;;;;;5132291;27;19979;-75
2023/12/08 13:40:28;;;;;;;;;;;3.30;99.90;;;;;;5102888;27;20362;-75
2023/12/08 13:42:54;;;;;;;;;;;3.60;99.90;;;;;;5114894;27;20337;-75
2023/12/08 13:45:23;;;;;;;;;;;3.10;99.90;;;;;;5135121;27;19934;-75
2023/12/08 13:47:48;;;;;;;;;;;3.10;99.90;;;;;;5115626;27;19927;-75
2023/12/08 13:50:14;;;;;;;;;;;3.20;99.90;;;;;;5130082;27;19976;-75
2023/12/08 13:52:39;;;;;;;;;;;3.20;99.90;;;;;;5111597;27;19987;-75
2023/12/08 13:55:05;;;;;;;;;;;3.20;99.90;;;;;;5100488;27;19964;-75
2023/12/08 13:57:31;;;;;;;;;;;3.20;99.90;;;;;;5116299;27;19931;-75
2023/12/08 13:59:56;;;;;;;;;;;3.20;99.90;;;;;;5118347;27;19923;-75
2023/12/08 14:02:22;;;;;;;;;;;3.20;99.90;;;;;;5095751;27;19931;-75
2023/12/08 14:04:48;;;;;;;;;;;3.20;99.90;;;;;;5115808;27;19938;-75
2023/12/08 14:07:13;;;;;;;;;;;3.30;99.90;;;;;;5117230;27;19931;-75
2023/12/08 14:09:39;;;;;;;;;;;3.30;99.90;;;;;;5116856;27;19931;-75
2023/12/08 14:12:05;;;;;;;;;;;3.30;99.90;;;;;;5114846;27;20312;-75
2023/12/08 14:14:30;;;;;;;;;;;3.30;99.90;;;;;;5120563;27;20002;-75
2023/12/08 14:16:56;;;;;;;;;;;4.10;99.90;;;;;;5110157;27;20310;-75
2023/12/08 14:19:22;;;;;;;;;;;3.30;99.90;;;;;;5117453;27;19927;-74
2023/12/08 14:21:48;;;;;;;;;;;3.70;99.90;;;;;;5113826;27;19923;-75
2023/12/08 14:24:14;;;;;;;;;;;3.30;99.90;;;;;;5113560;27;19931;-75
2023/12/08 14:26:44;;;;;;;;;;;3.40;99.90;;;;;;5117555;27;19938;-75